Time;durP1;ratioP1;P1;durP2;ratioP2;P2;SDS_P1;SDS_P2;PMS_P1;PMS_P2;Temp;Humidity;BMP_temperature;BMP_pressure;BME280_temperature;BME280_humidity;BME280_pressure;Samples;Min_cycle;Max_cycle;Signal;HPM_P1;HPM_P2
2023/01/22 00:00:03;;;;;;;13.97;8.40;;;23.90;37.10;;;;;;5065039;28;20822;-69
2023/01/22 00:02:30;;;;;;;15.87;9.10;;;23.90;37.10;;;;;;5060098;28;20215;-72
2023/01/22 00:04:57;;;;;;;17.97;9.13;;;23.90;37.00;;;;;;5060510;28;20348;-67
2023/01/22 00:07:24;;;;;;;20.87;10.33;;;23.90;37.00;;;;;;5059753;28;20211;-63
2023/01/22 00:09:50;;;;;;;16.83;8.83;;;23.90;36.90;;;;;;5061280;28;20310;-67
2023/01/22 00:12:19;;;;;;;18.13;9.27;;;23.90;36.90;;;;;;5061535;28;20199;-70
2023/01/22 00:14:47;;;;;;;14.63;8.27;;;23.90;36.80;;;;;;5063573;28;20199;-68
2023/01/22 00:17:14;;;;;;;16.67;8.83;;;23.90;36.80;;;;;;5060349;28;20211;-64
2023/01/22 00:19:41;;;;;;;9.57;6.80;;;23.90;36.80;;;;;;5067533;28;20231;-65
2023/01/22 00:22:09;;;;;;;19.10;9.70;;;23.90;36.80;;;;;;5061301;28;20270;-64
2023/01/22 00:24:36;;;;;;;11.03;6.87;;;23.90;36.80;;;;;;5065366;28;20965;-67
2023/01/22 00:27:03;;;;;;;11.77;6.93;;;23.90;36.80;;;;;;5062964;28;20773;-86
2023/01/22 00:29:31;;;;;;;15.10;7.97;;;23.90;36.70;;;;;;5067439;28;20208;-67
2023/01/22 00:31:58;;;;;;;11.83;6.73;;;23.90;36.80;;;;;;5062516;28;20204;-66
2023/01/22 00:34:25;;;;;;;11.07;6.60;;;23.80;36.70;;;;;;5066494;28;20199;-79
2023/01/22 00:36:52;;;;;;;10.83;6.63;;;23.80;36.70;;;;;;5064842;28;20286;-70
2023/01/22 00:39:19;;;;;;;9.47;5.87;;;23.80;36.70;;;;;;5062550;28;20314;-79
2023/01/22 00:41:46;;;;;;;10.13;6.07;;;23.80;36.70;;;;;;5067294;28;20287;-79
2023/01/22 00:44:12;;;;;;;19.73;8.93;;;23.80;36.70;;;;;;5066138;28;20200;-72
2023/01/22 00:46:42;;;;;;;19.57;8.53;;;23.80;36.70;;;;;;5063778;28;20857;-75
2023/01/22 00:49:09;;;;;;;9.93;6.53;;;23.80;37.30;;;;;;5063816;28;20206;-71
2023/01/22 00:51:38;;;;;;;11.67;6.37;;;23.80;36.60;;;;;;5065613;28;20204;-80
2023/01/22 00:54:05;;;;;;;10.70;6.10;;;23.80;36.70;;;;;;5065408;28;20286;-76
2023/01/22 00:56:32;;;;;;;12.53;7.07;;;23.80;36.60;;;;;;5060833;28;20205;-82
2023/01/22 00:58:58;;;;;;;9.17;5.87;;;23.80;36.60;;;;;;5065365;28;20223;-65
2023/01/22 01:01:26;;;;;;;21.33;9.27;;;23.80;36.70;;;;;;5062451;28;20231;-64
2023/01/22 01:03:55;;;;;;;19.30;8.63;;;23.80;36.70;;;;;;5059075;28;20197;-65
2023/01/22 01:06:22;;;;;;;11.13;5.90;;;23.80;36.60;;;;;;5055954;28;20199;-72
2023/01/22 01:08:50;;;;;;;15.03;7.27;;;23.80;36.60;;;;;;5059257;28;20204;-75
2023/01/22 01:11:20;;;;;;;19.57;8.33;;;23.80;36.60;;;;;;5054158;28;20199;-71
2023/01/22 01:13:47;;;;;;;14.00;6.93;;;23.70;36.60;;;;;;5059594;28;20249;-65
2023/01/22 01:16:16;;;;;;;13.77;6.50;;;23.70;36.60;;;;;;5064347;28;20200;-84
2023/01/22 01:18:43;;;;;;;9.63;5.57;;;23.80;36.60;;;;;;5061134;28;20195;-69
2023/01/22 01:21:12;;;;;;;15.37;7.30;;;23.70;36.60;;;;;;5065441;28;20227;-64
2023/01/22 01:23:41;;;;;;;17.13;7.13;;;23.70;36.60;;;;;;5059259;28;20199;-67
2023/01/22 01:26:10;;;;;;;17.23;7.83;;;23.70;36.60;;;;;;5066641;28;20651;-67
2023/01/22 01:28:37;;;;;;;19.83;8.43;;;23.70;36.60;;;;;;5063115;28;20209;-64
2023/01/22 01:31:06;;;;;;;10.40;5.57;;;23.70;36.60;;;;;;5061902;28;20202;-66
2023/01/22 01:33:33;;;;;;;8.00;5.33;;;23.70;36.60;;;;;;5060737;28;20187;-65
2023/01/22 01:36:01;;;;;;;8.73;5.60;;;23.70;36.60;;;;;;5066421;28;20191;-64
2023/01/22 01:38:30;;;;;;;12.27;5.60;;;23.70;36.60;;;;;;5064305;28;20218;-64
2023/01/22 01:40:57;;;;;;;18.23;7.90;;;23.70;36.60;;;;;;5064032;28;20706;-64
2023/01/22 01:43:24;;;;;;;9.43;5.23;;;23.70;36.60;;;;;;5062208;28;20200;-65
2023/01/22 01:45:55;;;;;;;11.47;5.90;;;23.70;36.60;;;;;;5064936;28;20521;-71
2023/01/22 01:48:30;;;;;;;14.10;6.93;;;23.70;36.60;;;;;;5065060;28;20235;-73
2023/01/22 01:51:08;;;;;;;10.03;5.53;;;23.70;36.60;;;;;;5053109;28;20210;-70
2023/01/22 01:53:38;;;;;;;11.90;5.93;;;23.60;36.50;;;;;;5062173;28;20195;-70
2023/01/22 01:56:10;;;;;;;15.03;7.30;;;23.70;36.60;;;;;;5063432;28;20199;-80
2023/01/22 01:58:39;;;;;;;9.27;5.33;;;23.60;36.50;;;;;;5052751;28;20208;-67
2023/01/22 02:01:10;;;;;;;14.77;6.83;;;23.70;36.60;;;;;;5061037;28;20238;-75
2023/01/22 02:03:39;;;;;;;9.70;5.57;;;23.70;36.60;;;;;;5065363;28;20203;-64
2023/01/22 02:06:09;;;;;;;15.27;7.47;;;23.60;36.50;;;;;;5064165;28;20568;-77
2023/01/22 02:08:37;;;;;;;15.77;7.37;;;23.60;36.50;;;;;;5057203;28;21707;-64
2023/01/22 02:11:04;;;;;;;9.57;5.67;;;23.60;36.50;;;;;;5065568;28;20290;-64
2023/01/22 02:13:34;;;;;;;14.87;7.07;;;23.60;36.50;;;;;;5062391;28;20211;-64
2023/01/22 02:16:02;;;;;;;11.33;6.40;;;23.60;36.50;;;;;;5067708;28;20203;-64
2023/01/22 02:18:29;;;;;;;19.87;8.27;;;23.60;36.50;;;;;;5064427;28;20223;-64
2023/01/22 02:21:00;;;;;;;9.20;5.23;;;23.60;36.50;;;;;;5069014;28;20234;-73
2023/01/22 02:23:28;;;;;;;17.93;7.63;;;23.60;36.50;;;;;;5068571;28;20620;-70
2023/01/22 02:25:55;;;;;;;12.63;6.10;;;23.60;36.50;;;;;;5066434;28;20206;-66
2023/01/22 02:28:22;;;;;;;14.93;7.17;;;23.60;36.50;;;;;;5067353;28;20679;-69
2023/01/22 02:30:49;;;;;;;15.83;6.90;;;23.60;36.60;;;;;;5070722;28;20242;-65
2023/01/22 02:33:17;;;;;;;8.90;5.10;;;23.60;36.50;;;;;;5068551;28;20695;-64
2023/01/22 02:35:44;;;;;;;14.70;6.70;;;23.60;36.50;;;;;;5064837;28;20287;-71
2023/01/22 02:38:13;;;;;;;9.63;5.47;;;23.60;36.50;;;;;;5068688;28;20203;-65
2023/01/22 02:40:47;;;;;;;14.67;7.10;;;23.60;37.10;;;;;;5062209;28;21177;-66
2023/01/22 02:43:15;;;;;;;10.17;5.30;;;23.60;36.50;;;;;;5069232;28;20249;-64
2023/01/22 02:45:42;;;;;;;15.73;7.30;;;23.60;36.50;;;;;;5062554;28;20199;-64
2023/01/22 02:48:09;;;;;;;21.03;8.50;;;23.60;36.50;;;;;;5068911;28;20195;-67
2023/01/22 02:50:36;;;;;;;17.40;7.77;;;23.50;36.40;;;;;;5065851;28;20303;-64
2023/01/22 02:53:03;;;;;;;11.27;6.00;;;23.50;36.40;;;;;;5066854;28;20244;-64
2023/01/22 02:55:31;;;;;;;11.73;6.47;;;23.50;36.40;;;;;;5067672;28;20219;-65
2023/01/22 02:57:58;;;;;;;11.43;5.77;;;23.50;36.40;;;;;;5068915;28;20294;-63
2023/01/22 03:00:25;;;;;;;18.80;8.37;;;23.50;36.40;;;;;;5065464;28;20235;-70
2023/01/22 03:02:52;;;;;;;9.13;5.40;;;23.50;36.50;;;;;;5064886;28;20195;-64
2023/01/22 03:05:19;;;;;;;13.67;6.80;;;23.50;36.50;;;;;;5057069;28;20377;-70
2023/01/22 03:07:46;;;;;;;7.47;4.53;;;23.50;36.50;;;;;;5065910;28;20205;-64
2023/01/22 03:10:15;;;;;;;9.73;5.93;;;23.50;36.60;;;;;;5069436;28;20196;-64
2023/01/22 03:21:17;;;;;;;11.33;5.80;;;23.50;36.60;;;;;;5066550;28;20333;-64
2023/01/22 03:23:45;;;;;;;10.17;5.60;;;23.50;36.60;;;;;;5069866;28;20542;-66
2023/01/22 03:26:12;;;;;;;8.10;5.07;;;23.50;36.60;;;;;;5068000;28;20206;-64
2023/01/22 03:28:41;;;;;;;9.53;5.20;;;23.50;36.60;;;;;;5068967;28;20207;-64
2023/01/22 03:31:08;;;;;;;12.33;6.30;;;23.50;36.60;;;;;;5067256;28;20264;-65
2023/01/22 03:33:35;;;;;;;9.80;5.70;;;23.50;36.60;;;;;;5065737;28;20203;-70
2023/01/22 03:36:04;;;;;;;10.43;5.60;;;23.50;37.30;;;;;;5057372;28;20213;-64
2023/01/22 03:38:31;;;;;;;9.37;5.57;;;23.40;36.60;;;;;;5063803;28;20210;-64
2023/01/22 03:41:02;;;;;;;18.10;7.37;;;23.50;36.70;;;;;;5064474;28;20695;-64
2023/01/22 03:43:30;;;;;;;8.90;5.37;;;23.40;36.60;;;;;;5049893;28;20196;-64
2023/01/22 03:46:02;;;;;;;13.13;6.60;;;23.50;37.30;;;;;;5060758;28;20213;-69
2023/01/22 03:48:29;;;;;;;15.43;7.00;;;23.40;36.60;;;;;;5058895;28;20213;-64
2023/01/22 03:50:57;;;;;;;8.57;5.43;;;23.50;36.70;;;;;;5061583;28;20199;-69
2023/01/22 03:53:24;;;;;;;16.40;7.20;;;23.40;36.70;;;;;;5060972;28;20648;-64
2023/01/22 03:55:58;;;;;;;12.00;5.73;;;23.40;36.60;;;;;;5066708;28;20206;-64
2023/01/22 03:58:25;;;;;;;15.73;6.93;;;23.40;36.70;;;;;;5061611;28;20284;-64
2023/01/22 04:00:56;;;;;;;10.07;5.77;;;23.40;36.70;;;;;;5065761;28;20216;-67
2023/01/22 04:03:24;;;;;;;17.67;7.50;;;23.40;36.70;;;;;;5066303;28;20219;-65
2023/01/22 04:05:51;;;;;;;8.53;4.87;;;23.50;36.80;;;;;;5067523;28;20206;-64
2023/01/22 04:08:19;;;;;;;19.20;7.93;;;23.40;36.70;;;;;;5065259;28;20212;-70
2023/01/22 04:10:46;;;;;;;8.97;5.03;;;23.40;36.70;;;;;;5066167;28;20199;-64
2023/01/22 04:13:13;;;;;;;9.97;5.20;;;23.40;36.70;;;;;;5068532;28;20212;-65
2023/01/22 04:15:43;;;;;;;9.67;5.07;;;23.40;36.70;;;;;;5067133;28;20208;-64
2023/01/22 04:18:10;;;;;;;11.43;5.90;;;23.40;36.70;;;;;;5065313;28;20209;-64
2023/01/22 04:20:38;;;;;;;12.57;6.47;;;23.40;36.70;;;;;;5065686;28;20237;-65
2023/01/22 04:23:05;;;;;;;16.70;7.13;;;23.40;36.40;;;;;;5069016;28;20267;-65
2023/01/22 04:25:32;;;;;;;9.87;5.63;;;23.40;36.50;;;;;;5066879;28;20667;-67
2023/01/22 04:27:59;;;;;;;13.90;6.47;;;23.40;36.60;;;;;;5062651;28;20203;-68
2023/01/22 04:30:26;;;;;;;12.13;5.87;;;23.30;36.60;;;;;;5066623;28;20203;-67
2023/01/22 04:32:53;;;;;;;9.60;5.20;;;23.30;36.60;;;;;;5068466;28;20291;-64
2023/01/22 04:35:20;;;;;;;9.10;5.40;;;23.30;36.70;;;;;;5068824;28;20200;-64
2023/01/22 04:37:48;;;;;;;9.53;5.13;;;23.30;36.70;;;;;;5068436;28;20196;-65
2023/01/22 04:40:16;;;;;;;9.70;5.30;;;23.20;36.60;;;;;;5069260;28;20229;-71
2023/01/22 04:42:42;;;;;;;8.07;4.90;;;23.20;36.70;;;;;;5068307;28;20756;-66
2023/01/22 04:45:10;;;;;;;9.23;4.93;;;23.20;36.70;;;;;;5068037;28;20669;-75
2023/01/22 04:47:41;;;;;;;10.23;5.43;;;23.10;36.70;;;;;;5066877;28;20200;-64
2023/01/22 04:50:12;;;;;;;9.13;4.20;;;23.10;37.40;;;;;;5064849;28;20286;-65
2023/01/22 04:52:39;;;;;;;9.60;4.97;;;23.10;36.70;;;;;;5067947;28;20202;-71
2023/01/22 04:55:09;;;;;;;11.57;5.23;;;23.10;36.70;;;;;;5061772;28;20278;-63
2023/01/22 04:57:36;;;;;;;9.50;5.17;;;23.10;37.40;;;;;;5066130;28;20591;-63
2023/01/22 05:00:04;;;;;;;7.37;4.07;;;23.00;36.60;;;;;;5068360;28;20583;-64
2023/01/22 05:02:31;;;;;;;10.57;4.83;;;23.00;36.60;;;;;;5068060;28;20191;-64
2023/01/22 05:04:57;;;;;;;7.50;4.30;;;23.00;36.60;;;;;;5068558;28;20192;-63
2023/01/22 05:07:24;;;;;;;9.07;4.57;;;22.90;36.50;;;;;;5068036;28;20668;-74
2023/01/22 05:09:51;;;;;;;10.80;5.07;;;22.90;36.60;;;;;;5066996;28;20199;-65
2023/01/22 05:12:20;;;;;;;8.80;4.63;;;22.90;36.60;;;;;;5048135;28;20203;-63
2023/01/22 05:14:46;;;;;;;9.53;4.37;;;22.90;36.60;;;;;;5055272;28;20737;-65
2023/01/22 05:17:13;;;;;;;8.80;4.20;;;22.90;36.60;;;;;;5061943;28;20195;-66
2023/01/22 05:19:40;;;;;;;9.60;4.87;;;22.90;36.70;;;;;;5067872;28;20230;-65
2023/01/22 05:22:07;;;;;;;13.83;5.67;;;22.90;36.70;;;;;;5066443;28;20203;-80
2023/01/22 05:24:34;;;;;;;8.87;4.50;;;22.90;36.70;;;;;;5066394;28;20294;-73
2023/01/22 05:27:01;;;;;;;9.97;4.63;;;22.80;36.70;;;;;;5066993;28;20204;-71
2023/01/22 05:29:29;;;;;;;7.57;4.03;;;22.80;36.70;;;;;;5068175;28;20202;-63
2023/01/22 05:31:57;;;;;;;7.10;3.97;;;22.80;36.70;;;;;;5067349;28;20199;-81
2023/01/22 05:34:25;;;;;;;9.40;4.13;;;22.80;36.80;;;;;;5065335;28;20279;-67
2023/01/22 05:36:52;;;;;;;9.87;4.67;;;22.80;36.80;;;;;;5060857;28;20573;-70
2023/01/22 05:39:19;;;;;;;12.43;5.20;;;22.70;36.80;;;;;;5066912;28;20675;-69
2023/01/22 05:41:46;;;;;;;11.20;4.80;;;22.70;36.80;;;;;;5067417;28;20616;-68
2023/01/22 05:44:14;;;;;;;7.23;3.70;;;22.70;36.80;;;;;;5068336;28;20277;-68
2023/01/22 05:46:42;;;;;;;11.57;4.67;;;22.70;36.80;;;;;;5066869;28;20285;-68
2023/01/22 05:49:09;;;;;;;7.20;3.73;;;22.70;36.80;;;;;;5067858;28;20651;-66
2023/01/22 05:51:36;;;;;;;7.90;3.70;;;22.80;36.90;;;;;;5072167;28;20203;-63
2023/01/22 05:54:03;;;;;;;8.50;4.07;;;22.80;37.00;;;;;;5061085;28;20204;-64
2023/01/22 05:56:30;;;;;;;7.47;3.80;;;22.90;37.00;;;;;;5067852;28;20200;-63
2023/01/22 05:58:57;;;;;;;6.30;3.27;;;22.90;37.00;;;;;;5072033;28;20203;-63
2023/01/22 06:01:24;;;;;;;8.60;3.77;;;22.90;37.00;;;;;;5071869;28;20222;-63
2023/01/22 06:03:52;;;;;;;7.70;3.80;;;23.00;37.00;;;;;;5071926;28;20196;-64
2023/01/22 06:06:20;;;;;;;7.33;3.77;;;23.00;37.00;;;;;;5070013;28;20202;-67
2023/01/22 06:08:47;;;;;;;8.53;3.93;;;23.10;37.00;;;;;;5069631;28;20284;-64
2023/01/22 06:11:16;;;;;;;9.67;4.23;;;23.10;36.90;;;;;;5066487;28;20582;-71
2023/01/22 06:13:43;;;;;;;9.17;4.07;;;23.20;36.90;;;;;;5071398;28;20203;-68
2023/01/22 06:16:12;;;;;;;9.47;4.07;;;23.30;36.90;;;;;;5070492;28;20196;-71
2023/01/22 06:18:39;;;;;;;9.00;4.00;;;23.30;36.90;;;;;;5071204;28;20224;-73
2023/01/22 06:21:08;;;;;;;7.17;3.87;;;23.40;37.00;;;;;;5071314;28;20235;-73
2023/01/22 06:23:35;;;;;;;12.13;4.83;;;23.40;37.00;;;;;;5069020;28;20199;-68
2023/01/22 06:26:04;;;;;;;13.13;5.07;;;23.50;37.10;;;;;;5068883;28;20309;-68
2023/01/22 06:28:31;;;;;;;8.33;3.93;;;23.50;37.00;;;;;;5070957;28;20724;-75
2023/01/22 06:31:04;;;;;;;5.43;3.13;;;23.60;37.00;;;;;;5071353;28;20199;-73
2023/01/22 06:33:32;;;;;;;8.87;3.97;;;23.60;36.90;;;;;;5070901;28;20211;-79
2023/01/22 06:35:59;;;;;;;7.37;3.47;;;23.70;36.90;;;;;;5070007;28;21038;-72
2023/01/22 06:38:28;;;;;;;7.23;3.60;;;23.80;37.00;;;;;;5069866;28;20196;-68
2023/01/22 06:40:56;;;;;;;11.33;4.80;;;23.80;36.90;;;;;;5069591;28;20227;-71
2023/01/22 06:43:24;;;;;;;6.27;3.33;;;23.90;36.90;;;;;;5060669;28;20541;-75
2023/01/22 06:45:51;;;;;;;8.53;4.10;;;23.90;36.90;;;;;;5050597;28;20196;-75
2023/01/22 06:48:18;;;;;;;9.27;4.03;;;24.00;36.90;;;;;;5050660;28;20587;-69
2023/01/22 06:50:45;;;;;;;8.17;3.63;;;24.00;36.80;;;;;;5063452;28;20204;-71
2023/01/22 06:53:13;;;;;;;7.50;3.50;;;24.10;36.90;;;;;;5068039;28;20195;-64
2023/01/22 06:55:41;;;;;;;7.83;3.80;;;24.10;36.90;;;;;;5069709;28;21041;-64
2023/01/22 06:58:08;;;;;;;8.00;3.83;;;24.10;36.80;;;;;;5069775;28;20210;-77
2023/01/22 07:00:35;;;;;;;12.70;5.23;;;24.20;36.90;;;;;;5066504;28;20227;-68
2023/01/22 07:03:06;;;;;;;7.03;3.33;;;24.20;36.80;;;;;;5069250;28;20278;-78
2023/01/22 07:05:33;;;;;;;6.43;3.30;;;24.30;36.80;;;;;;5070598;28;20207;-76
2023/01/22 07:08:01;;;;;;;7.10;3.53;;;24.30;36.80;;;;;;5068412;28;20214;-67
2023/01/22 07:10:28;;;;;;;7.43;3.60;;;24.40;36.80;;;;;;5068850;28;20675;-71
2023/01/22 07:12:58;;;;;;;9.60;4.27;;;24.40;36.70;;;;;;5069764;28;20199;-67
2023/01/22 07:15:26;;;;;;;9.83;4.13;;;24.40;36.60;;;;;;5069740;28;20200;-64
2023/01/22 07:17:54;;;;;;;7.33;3.60;;;24.50;36.70;;;;;;5069420;28;20209;-72
2023/01/22 07:20:22;;;;;;;14.97;5.67;;;24.50;36.60;;;;;;5058258;28;20238;-77
2023/01/22 07:22:49;;;;;;;8.27;3.47;;;24.50;36.60;;;;;;5070022;28;20218;-64
2023/01/22 07:25:16;;;;;;;6.30;3.27;;;24.60;37.20;;;;;;5070653;28;20283;-63
2023/01/22 07:27:43;;;;;;;7.90;3.47;;;24.60;36.60;;;;;;5070300;28;20207;-68
2023/01/22 07:30:13;;;;;;;7.40;3.60;;;24.70;36.70;;;;;;5068842;28;20200;-77
2023/01/22 07:32:40;;;;;;;6.37;3.40;;;24.70;36.60;;;;;;5067285;28;20812;-73
2023/01/22 07:35:07;;;;;;;7.57;3.60;;;24.60;36.50;;;;;;5067785;28;20210;-78
2023/01/22 07:37:35;;;;;;;5.97;3.10;;;24.70;36.70;;;;;;5069602;28;20196;-66
2023/01/22 07:40:02;;;;;;;8.90;3.97;;;24.80;36.60;;;;;;5068765;28;20216;-67
2023/01/22 07:42:29;;;;;;;6.60;3.43;;;24.80;37.10;;;;;;5070080;28;20226;-69
2023/01/22 07:44:56;;;;;;;7.47;3.50;;;24.90;36.60;;;;;;5069003;28;20195;-64
2023/01/22 07:47:24;;;;;;;6.57;3.43;;;24.90;36.60;;;;;;5066501;28;20565;-66
2023/01/22 07:49:51;;;;;;;9.90;4.17;;;24.90;36.50;;;;;;5068777;28;20207;-64
2023/01/22 07:52:18;;;;;;;8.20;3.87;;;25.00;36.60;;;;;;5069634;28;20200;-64
2023/01/22 07:54:45;;;;;;;5.10;2.90;;;25.00;36.50;;;;;;5069852;28;20569;-64
2023/01/22 07:57:15;;;;;;;7.73;3.73;;;25.00;36.50;;;;;;5068025;28;20227;-66
2023/01/22 07:59:42;;;;;;;6.43;3.20;;;25.10;36.50;;;;;;5050242;28;20308;-64
2023/01/22 08:02:12;;;;;;;9.17;4.13;;;25.10;36.50;;;;;;5053907;28;20270;-65
2023/01/22 08:04:41;;;;;;;6.83;3.40;;;25.10;36.40;;;;;;5056264;28;20210;-72
2023/01/22 08:07:15;;;;;;;17.67;6.37;;;25.10;37.00;;;;;;5064161;28;20204;-67
2023/01/22 08:09:42;;;;;;;5.43;2.80;;;25.10;36.40;;;;;;5068754;28;20199;-64
2023/01/22 08:12:09;;;;;;;7.97;3.70;;;25.20;36.40;;;;;;5068672;28;20203;-67
2023/01/22 08:14:36;;;;;;;8.80;3.83;;;25.20;36.40;;;;;;5066292;28;20200;-65
2023/01/22 08:17:03;;;;;;;8.43;3.63;;;25.20;36.40;;;;;;5066823;28;20652;-64
2023/01/22 08:19:30;;;;;;;6.90;3.33;;;25.20;36.40;;;;;;5068450;28;20219;-66
2023/01/22 08:21:58;;;;;;;6.13;3.10;;;25.20;36.40;;;;;;5067015;28;20600;-69
2023/01/22 08:24:25;;;;;;;8.73;4.00;;;25.20;36.30;;;;;;5064173;28;20203;-70
2023/01/22 08:26:54;;;;;;;11.30;4.67;;;25.20;36.30;;;;;;5050607;28;20728;-74
2023/01/22 08:29:22;;;;;;;7.23;3.37;;;25.20;36.30;;;;;;5068599;28;20199;-69
2023/01/22 08:31:49;;;;;;;10.97;4.63;;;25.20;36.30;;;;;;5068187;28;20214;-66
2023/01/22 08:34:16;;;;;;;5.70;2.87;;;25.20;36.30;;;;;;5067845;28;20196;-67
2023/01/22 08:36:43;;;;;;;10.33;4.17;;;25.20;36.30;;;;;;5066713;28;20215;-71
2023/01/22 08:39:12;;;;;;;5.63;2.90;;;25.20;36.30;;;;;;5068690;28;20640;-70
2023/01/22 08:41:39;;;;;;;16.30;6.17;;;25.10;36.20;;;;;;5066329;28;20223;-67
2023/01/22 08:44:06;;;;;;;6.87;3.23;;;25.10;36.20;;;;;;5067667;28;20919;-70
2023/01/22 08:46:34;;;;;;;9.13;3.73;;;25.10;36.30;;;;;;5066147;28;20204;-72
2023/01/22 08:49:03;;;;;;;7.40;3.37;;;25.10;36.20;;;;;;5062875;28;20206;-64
2023/01/22 08:51:30;;;;;;;8.17;3.67;;;25.00;36.20;;;;;;5068342;28;20214;-65
2023/01/22 08:53:56;;;;;;;5.23;2.90;;;25.00;36.80;;;;;;5068469;28;20294;-64
2023/01/22 08:56:25;;;;;;;9.00;3.77;;;25.00;36.20;;;;;;5067178;28;20210;-78
2023/01/22 08:58:52;;;;;;;8.33;3.67;;;25.00;36.20;;;;;;5067582;28;20216;-68
2023/01/22 09:01:20;;;;;;;6.37;3.20;;;24.90;36.20;;;;;;5067680;28;20253;-82
2023/01/22 09:03:47;;;;;;;6.40;3.13;;;24.90;36.20;;;;;;5062399;28;20222;-65
2023/01/22 09:06:14;;;;;;;9.00;4.00;;;24.90;36.20;;;;;;5068430;28;20702;-65
2023/01/22 09:08:41;;;;;;;8.17;3.53;;;24.90;36.30;;;;;;5068128;28;20577;-66
2023/01/22 09:11:08;;;;;;;7.03;3.40;;;24.90;36.30;;;;;;5063754;28;20192;-66
2023/01/22 09:13:36;;;;;;;6.63;3.23;;;24.80;36.20;;;;;;5067101;28;20206;-67
2023/01/22 09:16:04;;;;;;;7.20;3.37;;;24.80;36.30;;;;;;5067923;28;20283;-63
2023/01/22 09:18:31;;;;;;;7.43;3.50;;;24.80;36.30;;;;;;5068126;28;20255;-67
2023/01/22 09:20:58;;;;;;;7.17;3.33;;;24.80;36.40;;;;;;5068532;28;20223;-74
2023/01/22 09:23:25;;;;;;;6.47;3.10;;;24.80;36.60;;;;;;5070066;28;20652;-67
2023/01/22 09:25:52;;;;;;;7.03;3.37;;;24.80;36.50;;;;;;5071115;28;20286;-68
2023/01/22 09:28:19;;;;;;;7.20;3.40;;;24.80;36.40;;;;;;5069827;28;20557;-68
2023/01/22 09:30:47;;;;;;;15.37;5.73;;;24.80;36.50;;;;;;5070769;28;20300;-74
2023/01/22 09:33:14;;;;;;;9.23;3.60;;;24.80;36.50;;;;;;5060942;28;20291;-68
2023/01/22 09:35:41;;;;;;;7.57;3.43;;;24.70;36.50;;;;;;5055301;28;20211;-71
2023/01/22 09:38:11;;;;;;;7.93;3.50;;;24.80;36.70;;;;;;5062644;28;20260;-76
2023/01/22 09:40:42;;;;;;;8.50;3.70;;;24.80;36.80;;;;;;5070108;28;20203;-68
2023/01/22 09:43:23;;;;;;;7.23;3.27;;;24.80;36.90;;;;;;5072088;28;20322;-71
2023/01/22 09:45:55;;;;;;;12.43;4.67;;;24.80;36.80;;;;;;5071598;28;20213;-69
2023/01/22 09:48:23;;;;;;;7.60;3.43;;;24.80;36.90;;;;;;5070564;28;20199;-69
2023/01/22 09:50:51;;;;;;;6.97;3.23;;;24.90;37.00;;;;;;5071971;28;20200;-66
2023/01/22 09:53:21;;;;;;;16.97;6.23;;;24.90;37.00;;;;;;5070327;28;20695;-69
2023/01/22 09:55:50;;;;;;;7.13;2.97;;;25.00;36.90;;;;;;5070127;28;20568;-64
2023/01/22 09:58:20;;;;;;;6.63;3.30;;;25.00;36.90;;;;;;5052605;28;20206;-64
2023/01/22 10:00:51;;;;;;;8.53;3.53;;;25.00;36.90;;;;;;5061388;28;20373;-66
2023/01/22 10:03:25;;;;;;;10.17;4.10;;;25.00;36.80;;;;;;5067393;28;20227;-66
2023/01/22 10:05:56;;;;;;;9.73;3.63;;;25.10;36.70;;;;;;5065356;28;20207;-65
2023/01/22 10:08:25;;;;;;;7.77;3.27;;;25.10;36.70;;;;;;5070804;28;20200;-66
2023/01/22 10:10:52;;;;;;;6.97;3.23;;;25.10;36.70;;;;;;5072029;28;20234;-66
2023/01/22 10:13:21;;;;;;;10.57;3.93;;;25.10;36.70;;;;;;5053093;28;20641;-66
2023/01/22 10:15:49;;;;;;;7.00;3.00;;;25.10;36.70;;;;;;5071223;28;20188;-66
2023/01/22 10:18:27;;;;;;;7.50;3.67;;;25.10;36.70;;;;;;5070082;28;20223;-66
2023/01/22 10:20:55;;;;;;;7.60;3.60;;;25.10;36.70;;;;;;5070136;28;20218;-65
2023/01/22 10:23:25;;;;;;;8.77;3.67;;;25.10;36.70;;;;;;5070976;28;20234;-65
2023/01/22 10:25:59;;;;;;;7.17;3.30;;;25.10;36.60;;;;;;5069809;28;20199;-71
2023/01/22 10:28:28;;;;;;;8.80;3.53;;;25.10;36.60;;;;;;5071461;28;20197;-66
2023/01/22 10:30:57;;;;;;;6.37;2.73;;;25.10;36.60;;;;;;5071360;28;20193;-70
2023/01/22 10:33:27;;;;;;;7.20;3.10;;;25.00;36.50;;;;;;5071270;28;20256;-68
2023/01/22 10:35:56;;;;;;;9.50;3.97;;;25.00;36.60;;;;;;5070605;28;20204;-72
2023/01/22 10:38:26;;;;;;;6.53;3.30;;;25.00;36.60;;;;;;5071262;28;20203;-74
2023/01/22 10:40:56;;;;;;;7.90;3.40;;;24.90;36.60;;;;;;5070470;28;20210;-66
2023/01/22 10:43:31;;;;;;;9.80;4.10;;;24.90;36.60;;;;;;5065604;28;20235;-69
2023/01/22 10:46:03;;;;;;;6.90;3.40;;;24.90;36.40;;;;;;5063569;28;20933;-77
2023/01/22 10:48:32;;;;;;;7.03;3.27;;;24.90;36.40;;;;;;5051072;28;20287;-66
2023/01/22 10:51:12;;;;;;;8.73;3.77;;;24.90;36.40;;;;;;5051614;28;20704;-73
2023/01/22 10:53:45;;;;;;;7.93;3.47;;;24.80;36.30;;;;;;5055187;28;20218;-67
2023/01/22 10:56:13;;;;;;;11.00;3.93;;;24.80;36.40;;;;;;5070936;28;20206;-66
2023/01/22 10:58:47;;;;;;;5.93;2.90;;;24.80;36.40;;;;;;5070697;28;20202;-65
2023/01/22 11:01:31;;;;;;;6.57;3.07;;;24.80;36.40;;;;;;5070624;28;20218;-65
2023/01/22 11:03:59;;;;;;;7.37;3.47;;;24.80;36.30;;;;;;5070742;28;20191;-65
2023/01/22 11:06:35;;;;;;;7.07;3.30;;;24.80;36.40;;;;;;5070886;28;20200;-67
2023/01/22 11:09:05;;;;;;;6.23;2.87;;;24.80;36.50;;;;;;5068658;28;20235;-67
2023/01/22 11:11:36;;;;;;;8.00;3.40;;;24.80;36.50;;;;;;5070365;28;20207;-65
2023/01/22 11:14:10;;;;;;;7.93;3.10;;;24.80;36.50;;;;;;5070317;28;20245;-65
2023/01/22 11:16:40;;;;;;;6.80;3.20;;;24.70;36.40;;;;;;5070268;28;20196;-67
2023/01/22 11:19:13;;;;;;;6.73;3.07;;;24.70;36.40;;;;;;5070120;28;20315;-65
2023/01/22 11:21:45;;;;;;;7.37;3.37;;;24.70;36.40;;;;;;5070094;28;20226;-65
2023/01/22 11:24:14;;;;;;;8.83;3.60;;;24.70;36.40;;;;;;5069427;28;20652;-65
2023/01/22 11:27:13;;;;;;;5.10;2.63;;;24.70;36.40;;;;;;5070217;28;20713;-66
2023/01/22 11:30:02;;;;;;;6.53;3.30;;;24.70;36.40;;;;;;5066958;28;20218;-67
2023/01/22 11:32:58;;;;;;;7.83;3.47;;;24.70;36.40;;;;;;5070051;28;20306;-68
2023/01/22 11:35:31;;;;;;;9.23;3.50;;;24.70;36.40;;;;;;5059163;28;20659;-65
2023/01/22 11:38:14;;;;;;;5.10;2.77;;;24.60;36.40;;;;;;5069059;28;20559;-67
2023/01/22 11:40:55;;;;;;;7.87;3.33;;;24.60;36.40;;;;;;5069880;28;20299;-66
2023/01/22 11:43:34;;;;;;;7.67;3.23;;;24.60;36.30;;;;;;5069710;28;20319;-66
2023/01/22 11:46:19;;;;;;;7.67;3.23;;;24.50;36.30;;;;;;5068996;28;20209;-68
2023/01/22 11:49:03;;;;;;;6.33;2.73;;;24.50;36.20;;;;;;5069750;28;20204;-65
2023/01/22 11:51:36;;;;;;;5.47;2.50;;;24.50;36.20;;;;;;5069636;28;20202;-69
2023/01/22 11:54:39;;;;;;;7.80;3.27;;;24.50;36.90;;;;;;5068994;28;20196;-69
2023/01/22 11:57:14;;;;;;;7.30;3.10;;;24.50;36.20;;;;;;5062527;28;20211;-66
2023/01/22 12:00:09;;;;;;;6.77;3.10;;;24.50;36.30;;;;;;5069658;28;20236;-70
2023/01/22 12:03:02;;;;;;;7.10;3.10;;;24.40;36.20;;;;;;5068925;28;20219;-69
2023/01/22 12:05:40;;;;;;;7.33;3.10;;;24.40;36.20;;;;;;5046087;28;20609;-67
2023/01/22 12:08:29;;;;;;;7.20;3.03;;;24.40;36.20;;;;;;5068512;28;20217;-76
2023/01/22 12:11:21;;;;;;;11.27;4.47;;;24.40;36.20;;;;;;5069133;28;20198;-73
2023/01/22 12:14:17;;;;;;;6.30;2.73;;;24.40;36.20;;;;;;5069707;28;20199;-68
2023/01/22 12:16:52;;;;;;;5.50;2.70;;;24.40;36.20;;;;;;5069384;28;20210;-62
2023/01/22 12:19:39;;;;;;;8.93;3.33;;;24.30;36.10;;;;;;5067189;28;20229;-66
2023/01/22 12:22:11;;;;;;;7.40;3.20;;;24.30;36.10;;;;;;5069177;28;20204;-66
2023/01/22 12:24:42;;;;;;;7.50;3.23;;;24.30;36.20;;;;;;5069456;28;20210;-68
2023/01/22 12:27:15;;;;;;;8.27;3.40;;;24.30;36.30;;;;;;5068044;28;20206;-66
2023/01/22 12:29:47;;;;;;;4.47;2.57;;;24.30;36.30;;;;;;5049309;28;20287;-66
2023/01/22 12:32:17;;;;;;;7.27;3.10;;;24.20;36.30;;;;;;5061321;28;20674;-64
2023/01/22 12:34:50;;;;;;;6.80;3.10;;;24.30;36.40;;;;;;5067194;28;20313;-65
2023/01/22 12:37:21;;;;;;;7.60;3.33;;;24.30;36.40;;;;;;5068744;28;20577;-64
2023/01/22 12:40:02;;;;;;;15.07;5.37;;;24.30;36.40;;;;;;5065949;28;20206;-70
2023/01/22 12:42:35;;;;;;;8.73;3.50;;;24.20;36.30;;;;;;5067959;28;20215;-68
2023/01/22 12:45:13;;;;;;;8.07;3.20;;;24.30;36.40;;;;;;5068049;28;20194;-69
2023/01/22 12:47:51;;;;;;;5.03;2.43;;;24.20;36.30;;;;;;5068456;28;20227;-77
2023/01/22 12:50:20;;;;;;;6.93;2.87;;;24.20;36.30;;;;;;5068860;28;20213;-71
2023/01/22 12:52:58;;;;;;;6.87;3.10;;;24.20;36.30;;;;;;5068125;28;20620;-67
2023/01/22 12:55:33;;;;;;;7.70;3.43;;;24.20;36.30;;;;;;5051555;28;20290;-71
2023/01/22 12:58:01;;;;;;;10.43;3.97;;;24.20;36.90;;;;;;5066781;28;20205;-67
2023/01/22 13:00:33;;;;;;;9.47;3.40;;;24.20;36.40;;;;;;5067590;28;20217;-67
2023/01/22 13:03:01;;;;;;;6.40;3.00;;;24.20;36.40;;;;;;5051802;28;20230;-67